Terminal Aerodrome Forecast
Issued by NWS

Home | Current Version | Previous Version | Text Only | Print | Product List | Glossary Off
Versions: 1 2 3 4 5 6 7 8 9 10 11 12 13 14 15 16 17 18 19 20 21 22 23 24 25

000
FTUS42 KMHX 312352
TAFISO
TAF
KISO 312352Z 0100/0124 VRB03KT 5SM BR VCSH SCT015 BKN025
     FM010200 00000KT 5SM BR BKN010
     FM010530 00000KT 3SM BR OVC007
     FM010800 00000KT 1SM BR OVC004
     FM011400 VRB03KT P6SM BKN025
      AMD LTD TO CLD VIS AND WIND=

USA.gov is the U.S. government's official web portal to all federal, state and local government web resources and services.